Terminal Aerodrome Forecast
Issued by NWS

Home | Current Version | Previous Version | Text Only | Print | Product List | Glossary On
Versions: 1 2 3 4 5 6 7 8 9 10 11 12 13 14 15 16 17 18 19 20 21
000
FTUS43 KILX 270041 AAA
TAFBMI
TAF AMD
KBMI 270041Z 2701/2724 15009KT P6SM VCTS SCT025CB BKN120
     FM270300 12006KT P6SM VCSH SCT035 BKN120
     FM270800 14007KT 4SM -SHRA BR VCTS BKN035CB
     FM271600 17009KT P6SM VCSH BKN035
     FM271900 19011KT P6SM SCT035 BKN250=

USA.gov is the U.S. government's official web portal to all federal, state and local government web resources and services.